Time;durP1;ratioP1;P1;durP2;ratioP2;P2;SDS_P1;SDS_P2;PMS_P1;PMS_P2;Temp;Humidity;BMP_temperature;BMP_pressure;BME280_temperature;BME280_humidity;BME280_pressure;Samples;Min_cycle;Max_cycle;Signal;HPM_P1;HPM_P2
2022/03/02 00:01:02;;;;;;;37.58;27.02;;;5.30;99.90;;;;;;5076394;28;20118;-71
2022/03/02 00:03:28;;;;;;;40.60;27.20;;;5.30;99.90;;;;;;5059469;28;20474;-72
2022/03/02 00:05:53;;;;;;;43.95;28.05;;;5.30;99.90;;;;;;5073081;28;20091;-72
2022/03/02 00:08:20;;;;;;;39.33;27.35;;;5.30;99.90;;;;;;5076491;28;20067;-73
2022/03/02 00:10:45;;;;;;;41.58;28.65;;;5.30;99.90;;;;;;5058458;28;20116;-72
2022/03/02 00:13:11;;;;;;;40.00;27.30;;;5.30;99.90;;;;;;5073207;28;20135;-71
2022/03/02 00:15:37;;;;;;;43.28;27.90;;;5.30;99.90;;;;;;5058305;28;20323;-72
2022/03/02 00:18:03;;;;;;;41.63;27.75;;;5.30;99.90;;;;;;5075466;28;20060;-71
2022/03/02 00:20:29;;;;;;;40.85;26.25;;;5.50;99.90;;;;;;5075820;28;20044;-72
2022/03/02 00:22:55;;;;;;;40.78;27.52;;;5.30;99.90;;;;;;5058119;28;20048;-71
2022/03/02 00:25:21;;;;;;;42.42;27.30;;;5.30;99.90;;;;;;5058624;28;20097;-72
2022/03/02 00:27:46;;;;;;;45.15;28.58;;;5.30;99.90;;;;;;5058190;28;20084;-73
2022/03/02 00:30:12;;;;;;;40.67;27.40;;;5.30;99.90;;;;;;5075900;28;20041;-71
2022/03/02 00:32:38;;;;;;;43.92;28.15;;;5.30;99.90;;;;;;5075706;28;20045;-71
2022/03/02 00:35:05;;;;;;;41.90;27.85;;;5.30;99.90;;;;;;5057942;28;20456;-72
2022/03/02 00:37:31;;;;;;;44.30;27.95;;;5.30;99.90;;;;;;5058063;28;20045;-72
2022/03/02 00:39:56;;;;;;;44.72;26.83;;;5.20;99.90;;;;;;5075769;28;20143;-73
2022/03/02 00:42:22;;;;;;;44.97;27.98;;;5.20;99.90;;;;;;5075607;28;20056;-72
2022/03/02 00:44:48;;;;;;;42.47;27.50;;;5.50;99.90;;;;;;5075675;28;20338;-72
2022/03/02 00:47:14;;;;;;;43.63;28.23;;;5.20;99.90;;;;;;5075021;28;20452;-72
2022/03/02 00:49:39;;;;;;;43.92;28.23;;;5.20;99.90;;;;;;5058154;28;20365;-72
2022/03/02 00:52:06;;;;;;;39.42;26.50;;;5.20;99.90;;;;;;5058163;28;20044;-73
2022/03/02 00:54:32;;;;;;;44.15;28.48;;;5.20;99.90;;;;;;5075519;28;20036;-72
2022/03/02 00:56:58;;;;;;;41.08;27.98;;;5.20;99.90;;;;;;5057951;28;20070;-70
2022/03/02 00:59:23;;;;;;;48.33;30.25;;;5.20;99.90;;;;;;5057538;28;20052;-73
2022/03/02 01:01:49;;;;;;;43.47;29.52;;;5.20;99.90;;;;;;5075029;28;20048;-72
2022/03/02 01:04:15;;;;;;;48.80;28.00;;;5.20;99.90;;;;;;5058305;28;20110;-72
2022/03/02 01:06:41;;;;;;;45.35;28.55;;;5.20;99.90;;;;;;5075159;28;20503;-72
2022/03/02 01:09:07;;;;;;;43.88;28.52;;;5.20;99.90;;;;;;5074933;28;20044;-72
2022/03/02 01:11:32;;;;;;;48.42;29.48;;;5.10;99.90;;;;;;5057808;28;20048;-73
2022/03/02 01:13:58;;;;;;;106.68;58.90;;;5.20;99.90;;;;;;5075043;28;20072;-72
2022/03/02 01:16:23;;;;;;;65.43;42.88;;;5.20;99.90;;;;;;5074890;28;20040;-72
2022/03/02 01:18:49;;;;;;;49.35;32.35;;;5.10;99.90;;;;;;5057429;28;20044;-72
2022/03/02 01:21:15;;;;;;;51.42;32.97;;;5.10;99.90;;;;;;5075021;28;20053;-74
2022/03/02 01:23:40;;;;;;;45.42;31.00;;;5.10;99.90;;;;;;5057630;28;20044;-72
2022/03/02 01:26:06;;;;;;;49.75;31.63;;;5.20;99.90;;;;;;5057473;28;20051;-71
2022/03/02 01:28:32;;;;;;;46.47;31.15;;;5.10;99.90;;;;;;5056840;28;20084;-73
2022/03/02 01:30:58;;;;;;;53.60;32.38;;;5.10;99.90;;;;;;5057628;28;20075;-73
2022/03/02 01:33:23;;;;;;;48.38;32.05;;;5.00;99.90;;;;;;5075229;28;20085;-72
2022/03/02 01:35:49;;;;;;;51.80;32.55;;;5.10;99.90;;;;;;5074861;28;20052;-73
2022/03/02 01:38:14;;;;;;;52.85;32.47;;;5.40;99.90;;;;;;5057461;28;20067;-71
2022/03/02 01:40:40;;;;;;;51.35;32.60;;;5.00;99.90;;;;;;5074610;28;20124;-72
2022/03/02 01:43:06;;;;;;;50.63;32.50;;;5.00;99.90;;;;;;5057216;28;20064;-72
2022/03/02 01:45:32;;;;;;;53.33;33.45;;;5.00;99.90;;;;;;5074865;28;20044;-72
2022/03/02 01:47:59;;;;;;;54.03;33.42;;;5.00;99.90;;;;;;5056517;28;20087;-71
2022/03/02 01:50:25;;;;;;;52.80;34.15;;;5.00;99.90;;;;;;5056706;28;20041;-72
2022/03/02 01:52:50;;;;;;;57.63;33.17;;;5.00;99.90;;;;;;5074685;28;20128;-72
2022/03/02 01:55:16;;;;;;;51.92;33.17;;;5.00;99.90;;;;;;5074775;28;20044;-72
2022/03/02 01:57:42;;;;;;;52.35;33.00;;;5.00;99.90;;;;;;5056683;28;20102;-72
2022/03/02 02:00:12;;;;;;;50.80;32.80;;;5.00;99.90;;;;;;5074405;28;20415;-71
2022/03/02 02:02:37;;;;;;;52.50;33.50;;;5.00;99.90;;;;;;5074480;28;20051;-72
2022/03/02 02:05:04;;;;;;;49.25;32.67;;;5.00;99.90;;;;;;5057251;28;20131;-72
2022/03/02 02:07:29;;;;;;;51.35;33.03;;;5.00;99.90;;;;;;5056806;28;20055;-72
2022/03/02 02:09:59;;;;;;;53.55;35.35;;;5.00;99.90;;;;;;5056621;28;20412;-73
2022/03/02 02:12:25;;;;;;;54.13;34.70;;;5.00;99.90;;;;;;5074406;28;20440;-71
2022/03/02 02:14:50;;;;;;;53.50;34.55;;;5.00;99.90;;;;;;5057175;28;20072;-72
2022/03/02 02:17:16;;;;;;;49.22;32.00;;;4.90;99.90;;;;;;5074525;28;20146;-72
2022/03/02 02:19:42;;;;;;;56.00;35.22;;;4.90;99.90;;;;;;5057318;28;20052;-71
2022/03/02 02:22:07;;;;;;;49.38;33.20;;;5.00;99.90;;;;;;5059573;28;20249;-72
2022/03/02 02:24:34;;;;;;;53.67;35.50;;;5.00;99.90;;;;;;5060549;28;20044;-71
2022/03/02 02:27:00;;;;;;;52.33;34.67;;;4.90;99.90;;;;;;5060518;28;20051;-72
2022/03/02 02:29:29;;;;;;;58.85;36.35;;;4.90;99.90;;;;;;5060160;28;20119;-71
2022/03/02 02:31:55;;;;;;;56.97;35.72;;;4.90;99.90;;;;;;5078050;28;20048;-71
2022/03/02 02:34:21;;;;;;;56.63;36.08;;;4.90;99.90;;;;;;5078160;28;20044;-72
2022/03/02 02:36:47;;;;;;;58.53;37.70;;;4.80;99.90;;;;;;5060189;28;20062;-72
2022/03/02 02:39:13;;;;;;;55.25;35.35;;;4.80;99.90;;;;;;5060072;28;20059;-74
2022/03/02 02:41:38;;;;;;;60.80;36.97;;;4.80;99.90;;;;;;5077645;28;20056;-73
2022/03/02 02:44:04;;;;;;;58.13;36.67;;;4.80;99.90;;;;;;5060929;28;20094;-72
2022/03/02 02:46:30;;;;;;;53.33;34.40;;;4.70;99.90;;;;;;5077786;28;20041;-72
2022/03/02 02:48:55;;;;;;;63.15;36.97;;;4.70;99.90;;;;;;5059906;28;20404;-73
2022/03/02 02:51:21;;;;;;;57.42;37.50;;;4.70;99.90;;;;;;5043944;28;20096;-71
2022/03/02 02:53:47;;;;;;;56.80;37.13;;;4.70;99.90;;;;;;5059850;28;20059;-73
2022/03/02 02:56:12;;;;;;;60.65;36.80;;;4.70;99.90;;;;;;5060196;28;20056;-74
2022/03/02 02:58:38;;;;;;;60.60;36.15;;;4.60;99.90;;;;;;5077517;28;20052;-72
2022/03/02 03:01:04;;;;;;;56.28;36.15;;;4.60;99.90;;;;;;5059584;28;20453;-72
2022/03/02 03:03:30;;;;;;;61.42;36.75;;;4.50;99.90;;;;;;5060219;28;20052;-73
2022/03/02 03:05:56;;;;;;;55.88;36.05;;;4.50;99.90;;;;;;5042148;28;20059;-71
2022/03/02 03:08:23;;;;;;;55.53;35.58;;;4.50;99.90;;;;;;5077110;28;20057;-71
2022/03/02 03:10:49;;;;;;;58.13;36.70;;;4.40;99.90;;;;;;5059739;28;20073;-73
2022/03/02 03:13:15;;;;;;;60.00;37.33;;;4.30;99.90;;;;;;5043608;28;20048;-72
2022/03/02 03:15:42;;;;;;;59.33;37.13;;;4.30;99.90;;;;;;5060050;28;20051;-72
2022/03/02 03:18:08;;;;;;;54.22;35.70;;;4.20;99.90;;;;;;5077389;28;20059;-72
2022/03/02 03:20:35;;;;;;;56.22;37.00;;;4.10;99.90;;;;;;5059510;28;20049;-72
2022/03/02 03:23:01;;;;;;;58.95;36.58;;;4.00;99.90;;;;;;5077150;28;20078;-71
2022/03/02 03:25:28;;;;;;;60.15;37.17;;;3.90;99.90;;;;;;5077273;28;20063;-71
2022/03/02 03:27:53;;;;;;;57.92;37.53;;;3.80;99.90;;;;;;5059031;28;20048;-72
2022/03/02 03:30:21;;;;;;;63.33;36.75;;;3.70;99.90;;;;;;5059120;28;20036;-71
2022/03/02 03:32:47;;;;;;;62.03;36.70;;;3.70;99.90;;;;;;5075833;28;20361;-73
2022/03/02 03:35:15;;;;;;;69.05;39.20;;;3.60;99.90;;;;;;5076856;28;20369;-71
2022/03/02 03:37:42;;;;;;;61.85;36.70;;;3.60;99.90;;;;;;5076647;28;20436;-73
2022/03/02 03:40:09;;;;;;;60.38;36.83;;;3.50;99.90;;;;;;5076821;28;20132;-72
2022/03/02 03:42:35;;;;;;;69.72;40.40;;;3.50;99.90;;;;;;5059135;28;20055;-71
2022/03/02 03:45:02;;;;;;;58.80;37.15;;;3.40;99.90;;;;;;5076694;28;20353;-73
2022/03/02 03:47:28;;;;;;;59.17;37.63;;;3.40;99.90;;;;;;5059157;28;20452;-73
2022/03/02 03:49:53;;;;;;;60.83;37.22;;;3.30;99.90;;;;;;5076708;28;20057;-73
2022/03/02 03:52:19;;;;;;;63.53;38.53;;;3.30;99.90;;;;;;5076557;28;20361;-73
2022/03/02 03:54:44;;;;;;;63.35;37.47;;;3.20;99.90;;;;;;5076756;28;20113;-73
2022/03/02 03:57:10;;;;;;;65.10;38.30;;;3.20;99.90;;;;;;5076425;28;20047;-71
2022/03/02 03:59:36;;;;;;;67.13;38.40;;;3.10;99.90;;;;;;5058764;28;20045;-73
2022/03/02 04:02:02;;;;;;;70.53;39.28;;;3.10;99.90;;;;;;5076479;28;20058;-71
2022/03/02 04:04:27;;;;;;;66.00;39.15;;;3.10;99.90;;;;;;5058967;28;20106;-71
2022/03/02 04:06:53;;;;;;;69.38;38.55;;;3.10;99.90;;;;;;5075609;28;20059;-71
2022/03/02 04:09:18;;;;;;;66.15;41.45;;;3.10;99.90;;;;;;5075893;28;20044;-72
2022/03/02 04:11:44;;;;;;;68.68;39.10;;;3.00;99.90;;;;;;5059301;28;20483;-73
2022/03/02 04:14:09;;;;;;;72.25;40.05;;;3.00;99.90;;;;;;5059168;28;20044;-71
2022/03/02 04:16:36;;;;;;;73.18;39.92;;;3.00;99.90;;;;;;5054917;28;20688;-71
2022/03/02 04:19:04;;;;;;;68.38;39.17;;;2.90;99.90;;;;;;5075293;28;20178;-73
2022/03/02 04:21:30;;;;;;;67.47;39.83;;;2.80;99.90;;;;;;5058343;28;20080;-72
2022/03/02 04:23:55;;;;;;;64.75;38.88;;;2.80;99.90;;;;;;5058348;28;20067;-71
2022/03/02 04:26:21;;;;;;;69.03;40.28;;;2.90;99.90;;;;;;5076278;28;20044;-70
2022/03/02 04:28:46;;;;;;;66.28;39.80;;;2.80;99.90;;;;;;5076047;28;20083;-71
2022/03/02 04:31:12;;;;;;;71.43;42.33;;;2.80;99.90;;;;;;5075849;28;20090;-72
2022/03/02 04:33:37;;;;;;;71.25;40.20;;;2.80;99.90;;;;;;5041451;28;20050;-71
2022/03/02 04:36:04;;;;;;;71.60;39.90;;;2.70;99.90;;;;;;5075259;28;20372;-73
2022/03/02 04:38:30;;;;;;;70.93;41.78;;;2.70;99.90;;;;;;5075586;28;20087;-73
2022/03/02 04:40:55;;;;;;;73.22;40.58;;;2.60;99.90;;;;;;5057774;28;20114;-72
2022/03/02 04:43:21;;;;;;;74.70;42.10;;;2.60;99.90;;;;;;5075472;28;20057;-71
2022/03/02 04:45:46;;;;;;;95.95;54.47;;;2.50;99.90;;;;;;5075484;28;20048;-73
2022/03/02 04:48:12;;;;;;;96.28;54.78;;;2.50;99.90;;;;;;5075326;28;20399;-71
2022/03/02 04:50:38;;;;;;;77.65;43.15;;;2.50;99.90;;;;;;5075524;28;20048;-73
2022/03/02 04:53:04;;;;;;;74.78;43.58;;;2.40;99.90;;;;;;5057915;28;20044;-72
2022/03/02 04:55:30;;;;;;;82.88;43.25;;;2.40;99.90;;;;;;5075788;28;20185;-71
2022/03/02 04:57:58;;;;;;;74.47;42.17;;;2.40;99.90;;;;;;5060101;28;20116;-70
2022/03/02 05:00:25;;;;;;;78.60;42.28;;;2.30;99.90;;;;;;5061178;28;20041;-71
2022/03/02 05:02:52;;;;;;;75.43;43.47;;;2.30;99.90;;;;;;5075964;28;20044;-72
2022/03/02 05:05:21;;;;;;;86.45;45.08;;;2.20;99.90;;;;;;5058690;28;20087;-71
2022/03/02 05:07:46;;;;;;;80.47;43.85;;;2.10;99.90;;;;;;5074523;28;20056;-69
2022/03/02 05:10:14;;;;;;;76.55;43.80;;;2.10;99.90;;;;;;5075524;28;20113;-71
2022/03/02 05:12:39;;;;;;;76.57;42.63;;;2.00;99.90;;;;;;5075270;28;20088;-70
2022/03/02 05:15:07;;;;;;;75.85;41.20;;;2.00;99.90;;;;;;5057742;28;20076;-73
2022/03/02 05:17:34;;;;;;;71.95;41.20;;;1.90;99.90;;;;;;5072196;28;20045;-73
2022/03/02 05:19:59;;;;;;;78.88;41.10;;;1.80;99.90;;;;;;5057327;28;20049;-72
2022/03/02 05:22:25;;;;;;;75.07;42.72;;;1.80;99.90;;;;;;5057616;28;20113;-71
2022/03/02 05:24:50;;;;;;;73.63;41.08;;;1.80;99.90;;;;;;5056519;28;20040;-71
2022/03/02 05:27:17;;;;;;;69.30;40.80;;;1.80;99.90;;;;;;5074461;28;20059;-73
2022/03/02 05:29:43;;;;;;;78.07;42.03;;;1.70;99.90;;;;;;5057192;28;20080;-71
2022/03/02 05:32:09;;;;;;;78.90;39.75;;;1.60;99.90;;;;;;5057434;28;20084;-72
2022/03/02 05:34:35;;;;;;;68.10;39.35;;;1.60;99.90;;;;;;5074108;28;20132;-71
2022/03/02 05:37:01;;;;;;;79.05;42.05;;;1.60;99.90;;;;;;5056697;28;20187;-73
2022/03/02 05:39:27;;;;;;;68.50;38.47;;;1.60;99.90;;;;;;5057055;28;20151;-72
2022/03/02 05:41:54;;;;;;;72.70;40.17;;;1.50;99.90;;;;;;5074868;28;20105;-71
2022/03/02 05:44:19;;;;;;;74.68;40.67;;;1.40;99.90;;;;;;5056985;28;20123;-71
2022/03/02 05:46:45;;;;;;;81.57;41.65;;;1.40;99.90;;;;;;5056803;28;20182;-71
2022/03/02 05:49:12;;;;;;;74.55;40.92;;;1.30;99.90;;;;;;5074729;28;20478;-72
2022/03/02 05:51:38;;;;;;;71.60;39.78;;;1.30;99.90;;;;;;5074752;28;20044;-71
2022/03/02 05:54:08;;;;;;;75.18;41.20;;;1.30;99.90;;;;;;5074427;28;20066;-70
2022/03/02 05:56:35;;;;;;;75.32;40.50;;;1.20;99.90;;;;;;5058066;28;20049;-71
2022/03/02 05:59:01;;;;;;;81.88;44.58;;;1.20;99.90;;;;;;5060812;28;20066;-69
2022/03/02 06:01:26;;;;;;;79.78;41.10;;;1.10;99.90;;;;;;5078230;28;20443;-71
2022/03/02 06:03:52;;;;;;;81.43;41.38;;;1.10;99.90;;;;;;5044599;28;20529;-72
2022/03/02 06:06:18;;;;;;;76.75;40.13;;;1.10;99.90;;;;;;5060601;28;20377;-73
2022/03/02 06:08:44;;;;;;;72.15;40.58;;;1.10;99.90;;;;;;5060956;28;20134;-72
2022/03/02 06:11:09;;;;;;;93.55;41.83;;;1.10;99.90;;;;;;5060685;28;20052;-73
2022/03/02 06:13:35;;;;;;;90.00;44.20;;;1.00;99.90;;;;;;5075250;28;20060;-73
2022/03/02 06:16:02;;;;;;;85.35;42.78;;;1.00;99.90;;;;;;5078415;28;20123;-72
2022/03/02 06:18:29;;;;;;;79.30;41.58;;;1.00;99.90;;;;;;5060716;28;20084;-70
2022/03/02 06:21:00;;;;;;;81.15;41.15;;;0.90;99.90;;;;;;5043898;28;20045;-71
2022/03/02 06:23:27;;;;;;;79.03;40.83;;;1.00;99.90;;;;;;5077744;28;20048;-73
2022/03/02 06:25:53;;;;;;;72.82;40.42;;;0.90;99.90;;;;;;5078394;28;20056;-71
2022/03/02 06:28:18;;;;;;;88.03;44.25;;;0.90;99.90;;;;;;5059333;28;20044;-72
2022/03/02 06:30:44;;;;;;;77.45;40.65;;;0.90;99.90;;;;;;5058768;28;20047;-71
2022/03/02 06:33:13;;;;;;;77.93;42.67;;;0.90;99.90;;;;;;5075159;28;20080;-72
2022/03/02 06:35:39;;;;;;;77.32;41.42;;;0.90;99.90;;;;;;5038287;28;20053;-73
2022/03/02 06:38:04;;;;;;;81.03;43.03;;;0.90;99.90;;;;;;5068590;28;20354;-72
2022/03/02 06:40:30;;;;;;;87.35;45.30;;;0.90;99.90;;;;;;5058754;28;20091;-72
2022/03/02 06:43:03;;;;;;;83.65;42.58;;;1.00;99.90;;;;;;5060097;28;20092;-72
2022/03/02 06:45:47;;;;;;;91.68;45.33;;;1.10;99.90;;;;;;5077019;28;20098;-71
2022/03/02 06:48:17;;;;;;;92.07;46.45;;;1.10;99.90;;;;;;5053074;28;20090;-71
2022/03/02 06:50:45;;;;;;;87.32;45.45;;;1.10;99.90;;;;;;5040607;28;20049;-70
2022/03/02 06:53:15;;;;;;;83.88;44.75;;;1.20;99.90;;;;;;5060525;28;20114;-71
2022/03/02 06:55:42;;;;;;;94.93;49.28;;;1.30;99.90;;;;;;5039961;28;20366;-72
2022/03/02 06:58:11;;;;;;;83.13;45.58;;;1.30;99.90;;;;;;5072487;28;20097;-71
2022/03/02 07:00:47;;;;;;;90.70;46.15;;;1.40;99.90;;;;;;5040309;28;20045;-73
2022/03/02 07:03:18;;;;;;;92.57;46.58;;;1.40;99.90;;;;;;5057611;28;20037;-70
2022/03/02 07:05:44;;;;;;;86.32;46.42;;;1.40;99.90;;;;;;5075450;28;20132;-71
2022/03/02 07:08:10;;;;;;;88.40;46.80;;;1.50;99.90;;;;;;5058727;28;20120;-71
2022/03/02 07:10:36;;;;;;;82.65;46.67;;;1.50;99.90;;;;;;5058329;28;20055;-72
2022/03/02 07:13:04;;;;;;;83.32;44.08;;;1.50;99.90;;;;;;5072991;28;20063;-70
2022/03/02 07:15:31;;;;;;;82.65;44.30;;;1.60;99.90;;;;;;5047632;28;20041;-72
2022/03/02 07:17:59;;;;;;;76.20;43.03;;;1.60;99.90;;;;;;5056952;28;20064;-73
2022/03/02 07:20:27;;;;;;;84.35;47.83;;;1.70;99.90;;;;;;5060016;28;20465;-73
2022/03/02 07:22:54;;;;;;;95.85;52.35;;;2.10;99.90;;;;;;5050661;28;20452;-73
2022/03/02 07:25:27;;;;;;;82.93;45.00;;;1.80;99.90;;;;;;5058471;28;20064;-72
2022/03/02 07:27:55;;;;;;;81.95;46.47;;;1.80;99.90;;;;;;5075871;28;20475;-73
2022/03/02 07:30:21;;;;;;;75.18;43.72;;;1.90;99.90;;;;;;5058592;28;20056;-73
2022/03/02 07:32:47;;;;;;;73.85;40.83;;;1.90;99.90;;;;;;5056397;28;20475;-74
2022/03/02 07:35:15;;;;;;;84.88;43.75;;;2.10;99.90;;;;;;5058684;28;20052;-72
2022/03/02 07:37:42;;;;;;;72.35;42.13;;;2.10;99.90;;;;;;5045030;28;20457;-72
2022/03/02 07:40:10;;;;;;;71.25;41.75;;;2.10;99.90;;;;;;5039516;28;20385;-74
2022/03/02 07:42:36;;;;;;;74.65;41.72;;;2.20;99.90;;;;;;5068951;28;20067;-73
2022/03/02 07:45:04;;;;;;;70.68;41.88;;;2.20;99.90;;;;;;5056706;28;20110;-71
2022/03/02 07:47:30;;;;;;;77.85;44.10;;;2.30;99.90;;;;;;5056386;28;20377;-72
2022/03/02 07:49:56;;;;;;;74.35;41.30;;;2.50;99.90;;;;;;5056054;28;20056;-72
2022/03/02 07:52:27;;;;;;;64.53;37.85;;;2.40;99.90;;;;;;5056774;28;20056;-72
2022/03/02 07:55:01;;;;;;;88.45;49.92;;;2.50;99.90;;;;;;5049597;28;20041;-71
2022/03/02 07:57:30;;;;;;;70.97;41.20;;;2.60;99.90;;;;;;5056094;28;20391;-72
2022/03/02 07:59:57;;;;;;;67.15;39.55;;;2.60;99.90;;;;;;5056050;28;20044;-71
2022/03/02 08:02:24;;;;;;;62.20;39.60;;;2.70;99.90;;;;;;5063037;28;20047;-73
2022/03/02 08:04:54;;;;;;;64.43;37.75;;;2.70;99.90;;;;;;5065619;28;20105;-73
2022/03/02 08:07:20;;;;;;;60.78;37.78;;;2.80;99.90;;;;;;5064440;28;20036;-73
2022/03/02 08:09:46;;;;;;;60.70;37.45;;;2.80;99.90;;;;;;5073251;28;20422;-72
2022/03/02 08:12:12;;;;;;;73.28;41.67;;;3.20;99.90;;;;;;5055393;28;20037;-73
2022/03/02 08:14:39;;;;;;;60.10;36.22;;;2.90;99.90;;;;;;5044087;28;20173;-71
2022/03/02 08:17:04;;;;;;;59.75;37.75;;;3.00;99.90;;;;;;5066453;28;20044;-73
2022/03/02 08:19:33;;;;;;;70.35;42.13;;;3.00;99.90;;;;;;5020581;28;20489;-73
2022/03/02 08:22:05;;;;;;;60.45;38.05;;;3.10;99.90;;;;;;5061738;28;20047;-73
2022/03/02 08:24:31;;;;;;;62.15;37.05;;;3.20;99.90;;;;;;5052426;28;20068;-72
2022/03/02 08:27:03;;;;;;;61.05;35.75;;;3.60;99.90;;;;;;5055651;28;20053;-72
2022/03/02 08:29:31;;;;;;;56.55;34.95;;;3.30;99.90;;;;;;5074088;28;20049;-74
2022/03/02 08:32:01;;;;;;;54.53;34.70;;;3.30;99.90;;;;;;5074037;28;20102;-72
2022/03/02 08:34:28;;;;;;;59.10;35.30;;;3.30;99.90;;;;;;5075270;28;20381;-72
2022/03/02 08:36:55;;;;;;;54.60;34.00;;;3.40;99.90;;;;;;5057617;28;20051;-71
2022/03/02 08:39:20;;;;;;;54.40;32.70;;;3.50;99.90;;;;;;5056099;28;20048;-73
2022/03/02 08:41:46;;;;;;;62.72;36.13;;;3.60;99.90;;;;;;5020953;28;20061;-72
2022/03/02 08:44:12;;;;;;;59.90;34.78;;;3.60;99.90;;;;;;5047857;28;20044;-72
2022/03/02 08:46:40;;;;;;;57.05;34.22;;;3.70;99.90;;;;;;5044785;28;20052;-71
2022/03/02 08:49:05;;;;;;;56.58;33.95;;;3.70;99.90;;;;;;5037672;28;20071;-73
2022/03/02 08:51:33;;;;;;;59.10;34.85;;;3.80;99.90;;;;;;5038330;28;20053;-72
2022/03/02 08:54:01;;;;;;;56.15;33.70;;;3.80;99.90;;;;;;5049223;28;20361;-72
2022/03/02 08:56:27;;;;;;;50.90;32.40;;;4.00;99.90;;;;;;5037809;28;20037;-74
2022/03/02 08:58:54;;;;;;;52.33;33.17;;;4.00;99.90;;;;;;5055023;28;20049;-71
2022/03/02 09:01:20;;;;;;;50.90;32.67;;;4.00;99.90;;;;;;5057204;28;20060;-73
2022/03/02 09:03:48;;;;;;;52.45;33.72;;;4.10;99.90;;;;;;5072982;28;20048;-72
2022/03/02 09:06:18;;;;;;;51.75;32.60;;;4.10;99.90;;;;;;5055161;28;20067;-71
2022/03/02 09:08:44;;;;;;;55.05;31.92;;;4.20;99.90;;;;;;5054733;28;20057;-73
2022/03/02 09:11:10;;;;;;;48.42;29.42;;;4.30;99.90;;;;;;5065709;28;20049;-71
2022/03/02 09:13:39;;;;;;;46.20;28.17;;;4.30;99.90;;;;;;5051126;28;20049;-71
2022/03/02 09:16:05;;;;;;;50.95;29.88;;;4.30;99.90;;;;;;5044536;28;20087;-74
2022/03/02 09:18:31;;;;;;;49.67;30.17;;;4.40;99.90;;;;;;5038454;28;20468;-73
2022/03/02 09:21:00;;;;;;;48.65;29.85;;;4.40;99.90;;;;;;5037727;28;20056;-73
2022/03/02 09:23:29;;;;;;;55.15;30.55;;;4.50;99.90;;;;;;5071372;28;20135;-72
2022/03/02 09:26:02;;;;;;;46.75;29.80;;;4.60;99.90;;;;;;5052439;28;20068;-73
2022/03/02 09:28:30;;;;;;;54.63;30.33;;;4.60;99.90;;;;;;5056393;28;20052;-74
2022/03/02 09:30:56;;;;;;;47.80;29.67;;;5.00;99.90;;;;;;5057913;28;20062;-72
2022/03/02 09:33:23;;;;;;;49.60;31.00;;;4.70;99.90;;;;;;5074751;28;20075;-74
2022/03/02 09:35:52;;;;;;;53.47;30.50;;;4.70;99.90;;;;;;5057557;28;20055;-73
2022/03/02 09:38:20;;;;;;;45.58;29.98;;;4.80;99.90;;;;;;5075165;28;20135;-74
2022/03/02 09:40:49;;;;;;;48.00;28.75;;;4.80;99.90;;;;;;5074804;28;20113;-71
2022/03/02 09:43:21;;;;;;;45.78;29.73;;;4.90;99.90;;;;;;5074353;28;20488;-73
2022/03/02 09:45:52;;;;;;;48.55;30.85;;;4.90;99.90;;;;;;5057506;28;20398;-72
2022/03/02 09:48:47;;;;;;;48.92;30.65;;;5.00;99.90;;;;;;5074171;28;20052;-73
2022/03/02 09:51:20;;;;;;;46.55;28.30;;;5.10;99.90;;;;;;5072744;28;20065;-71
2022/03/02 09:53:48;;;;;;;53.90;30.52;;;5.10;99.90;;;;;;5074070;28;20040;-72
2022/03/02 09:56:14;;;;;;;47.70;28.63;;;5.20;99.90;;;;;;5074336;28;20045;-73
2022/03/02 09:58:42;;;;;;;43.35;27.85;;;5.30;99.90;;;;;;5056963;28;20178;-72
2022/03/02 10:01:17;;;;;;;44.72;29.77;;;5.40;99.90;;;;;;5074342;28;20075;-73
2022/03/02 10:03:47;;;;;;;48.80;28.38;;;5.40;99.90;;;;;;5074381;28;20053;-72
2022/03/02 10:06:16;;;;;;;49.25;28.80;;;5.40;99.90;;;;;;5074443;28;20052;-72
2022/03/02 10:08:51;;;;;;;43.97;27.42;;;5.50;99.90;;;;;;5074617;28;20056;-73
2022/03/02 10:11:23;;;;;;;41.92;27.15;;;5.60;99.90;;;;;;5040452;28;20117;-73
2022/03/02 10:13:50;;;;;;;41.35;26.27;;;5.60;99.90;;;;;;5074851;28;20056;-72
2022/03/02 10:16:25;;;;;;;44.55;27.58;;;5.70;99.90;;;;;;5074558;28;20080;-72
2022/03/02 10:19:02;;;;;;;38.58;25.95;;;5.70;99.90;;;;;;5057517;28;20407;-74
2022/03/02 10:21:40;;;;;;;42.67;26.50;;;5.80;99.90;;;;;;5074620;28;20044;-73
2022/03/02 10:24:13;;;;;;;40.45;25.92;;;5.90;99.90;;;;;;5074038;28;20040;-73
2022/03/02 10:26:50;;;;;;;40.17;24.83;;;6.00;99.90;;;;;;5074323;28;20040;-74
2022/03/02 10:29:31;;;;;;;38.35;25.38;;;6.10;99.90;;;;;;5074561;28;20056;-74
2022/03/02 10:32:16;;;;;;;41.40;25.75;;;6.20;99.90;;;;;;5074598;28;20083;-74
2022/03/02 10:34:50;;;;;;;44.42;25.58;;;6.20;99.90;;;;;;5074410;28;20102;-72
2022/03/02 10:37:27;;;;;;;39.13;25.05;;;6.30;99.90;;;;;;5074085;28;20445;-73
2022/03/02 10:39:54;;;;;;;40.13;26.55;;;6.30;99.90;;;;;;5056311;28;20135;-74
2022/03/02 10:42:29;;;;;;;42.42;26.27;;;6.30;99.90;;;;;;5058276;28;20059;-73
2022/03/02 10:45:22;;;;;;;37.97;24.80;;;6.30;99.90;;;;;;5074742;28;20098;-73
2022/03/02 10:47:55;;;;;;;36.78;23.88;;;6.40;99.90;;;;;;5059733;28;20055;-72
2022/03/02 10:50:30;;;;;;;41.35;25.63;;;6.60;99.90;;;;;;5059929;28;20137;-73
2022/03/02 10:52:57;;;;;;;38.33;25.20;;;6.60;99.90;;;;;;5060328;28;20067;-73
2022/03/02 10:55:24;;;;;;;38.38;25.33;;;6.70;99.90;;;;;;5077186;28;20036;-73
2022/03/02 10:57:52;;;;;;;37.75;24.50;;;6.80;99.90;;;;;;5077870;28;20392;-72
2022/03/02 11:00:20;;;;;;;36.78;24.42;;;6.80;99.90;;;;;;5059952;28;20080;-74
2022/03/02 11:02:49;;;;;;;38.63;24.55;;;6.80;99.90;;;;;;5060184;28;20056;-73
2022/03/02 11:05:17;;;;;;;38.63;24.65;;;6.90;99.90;;;;;;5077750;28;20048;-73
2022/03/02 11:07:44;;;;;;;39.28;24.48;;;7.00;99.90;;;;;;5077520;28;20079;-73
2022/03/02 11:10:11;;;;;;;38.35;24.15;;;7.40;99.90;;;;;;5077447;28;20036;-74
2022/03/02 11:12:41;;;;;;;35.70;23.67;;;7.10;99.90;;;;;;5059284;28;20468;-73
2022/03/02 11:15:08;;;;;;;37.08;24.48;;;7.20;99.90;;;;;;5077252;28;20040;-72
2022/03/02 11:17:34;;;;;;;36.88;23.85;;;7.20;99.90;;;;;;5077609;28;20045;-72
2022/03/02 11:20:09;;;;;;;37.10;23.98;;;7.30;99.90;;;;;;5077547;28;20127;-74
2022/03/02 11:22:36;;;;;;;37.15;24.67;;;7.30;99.90;;;;;;5059180;28;20052;-73
2022/03/02 11:25:04;;;;;;;35.00;23.02;;;7.40;99.90;;;;;;5058770;28;20137;-74
2022/03/02 11:27:40;;;;;;;95.50;54.35;;;7.50;99.90;;;;;;5059414;28;20051;-74
2022/03/02 11:30:12;;;;;;;48.10;31.38;;;7.50;99.90;;;;;;5076869;28;20048;-72
2022/03/02 11:32:41;;;;;;;36.58;23.02;;;7.60;99.90;;;;;;5077232;28;20048;-72
2022/03/02 11:35:09;;;;;;;36.72;22.88;;;7.60;99.90;;;;;;5042973;28;20519;-73
2022/03/02 11:37:35;;;;;;;33.47;22.83;;;7.70;99.90;;;;;;5059152;28;20092;-71
2022/03/02 11:40:04;;;;;;;35.45;22.98;;;7.70;99.90;;;;;;5076915;28;20084;-73
2022/03/02 11:42:32;;;;;;;34.30;23.38;;;7.80;99.90;;;;;;5059949;28;20113;-73
2022/03/02 11:44:59;;;;;;;35.80;23.13;;;7.80;99.90;;;;;;5059481;28;20049;-72
2022/03/02 11:47:34;;;;;;;33.50;22.52;;;7.80;99.90;;;;;;5076985;28;20040;-74
2022/03/02 11:50:00;;;;;;;33.88;23.25;;;7.90;99.90;;;;;;5059032;28;20059;-73
2022/03/02 11:52:27;;;;;;;35.00;23.58;;;7.90;99.90;;;;;;5076578;28;20570;-72
2022/03/02 11:54:59;;;;;;;35.42;22.88;;;7.90;99.90;;;;;;5054896;28;20052;-73
2022/03/02 11:57:28;;;;;;;34.45;22.52;;;8.00;99.90;;;;;;5059083;28;20113;-73
2022/03/02 12:00:08;;;;;;;32.00;22.33;;;8.00;99.90;;;;;;5058662;28;20045;-73
2022/03/02 12:02:48;;;;;;;31.63;20.75;;;8.10;99.90;;;;;;5042715;28;20468;-74
2022/03/02 12:05:16;;;;;;;30.23;20.85;;;8.20;99.90;;;;;;5058542;28;20092;-72
2022/03/02 12:07:51;;;;;;;32.70;21.95;;;8.30;99.90;;;;;;5076068;28;20106;-72
2022/03/02 12:10:23;;;;;;;34.85;21.20;;;8.30;99.90;;;;;;5076391;28;20123;-74
2022/03/02 12:12:50;;;;;;;32.83;21.70;;;8.30;99.90;;;;;;5058660;28;20044;-73
2022/03/02 12:15:17;;;;;;;32.22;21.75;;;8.30;99.90;;;;;;5058493;28;20136;-74
2022/03/02 12:17:43;;;;;;;32.30;21.15;;;8.30;99.90;;;;;;5058340;28;20052;-72
2022/03/02 12:20:19;;;;;;;31.08;20.48;;;8.40;99.90;;;;;;5076360;28;20346;-72
2022/03/02 12:22:48;;;;;;;30.55;20.20;;;8.50;99.90;;;;;;5058757;28;20063;-72
2022/03/02 12:25:17;;;;;;;34.45;20.23;;;8.60;99.90;;;;;;5075740;28;20079;-73
2022/03/02 12:27:56;;;;;;;32.10;20.30;;;8.60;99.90;;;;;;5075277;28;20083;-72
2022/03/02 12:30:22;;;;;;;30.60;20.77;;;8.60;99.90;;;;;;5075794;28;20036;-72
2022/03/02 12:32:52;;;;;;;29.70;19.85;;;8.70;99.90;;;;;;5058723;28;20131;-72
2022/03/02 12:35:21;;;;;;;31.63;19.70;;;8.80;99.90;;;;;;5076397;28;20127;-74
2022/03/02 12:37:47;;;;;;;31.77;20.05;;;8.80;99.90;;;;;;5057881;28;20052;-74